createdAt,value
2023-02-19T00:00:59.324Z,4.4
2023-02-19T00:02:15.625Z,4.5
2023-02-19T00:03:31.908Z,4.5
2023-02-19T00:04:47.230Z,4.4
2023-02-19T00:06:03.519Z,4.5
2023-02-19T00:07:19.822Z,4.7
2023-02-19T00:08:36.105Z,4.2
2023-02-19T00:09:52.410Z,4.6
2023-02-19T00:12:24.979Z,4.5
2023-02-19T00:13:41.290Z,4.2
2023-02-19T00:14:57.569Z,4.5
2023-02-19T00:16:13.868Z,4.6
2023-02-19T00:17:30.165Z,4.2
2023-02-19T00:18:46.453Z,4.4
2023-02-19T00:20:02.745Z,4.2
2023-02-19T00:21:18.062Z,4.5
2023-02-19T00:22:34.349Z,4.3
2023-02-19T00:23:50.768Z,4.3
2023-02-19T00:25:07.061Z,4
2023-02-19T00:26:23.369Z,4.2
2023-02-19T00:27:39.660Z,4.1
2023-02-19T00:28:55.949Z,4.4
2023-02-19T00:30:12.240Z,4.3
2023-02-19T00:31:28.550Z,4.4
2023-02-19T00:32:44.838Z,4.2
2023-02-19T00:34:01.133Z,4.5
2023-02-19T00:35:17.422Z,4.6
2023-02-19T00:36:33.708Z,4.2
2023-02-19T00:37:50.007Z,4.4
2023-02-19T00:39:06.299Z,4.2
2023-02-19T00:40:22.730Z,4.5
2023-02-19T00:41:39.020Z,4.3
2023-02-19T00:42:55.299Z,4.5
2023-02-19T00:44:11.605Z,4.4
2023-02-19T00:45:27.895Z,4.2
2023-02-19T00:46:44.197Z,4.5
2023-02-19T00:48:00.494Z,4.3
2023-02-19T00:50:33.069Z,4
2023-02-19T00:51:49.357Z,4
2023-02-19T00:53:05.662Z,4.4
2023-02-19T00:54:21.955Z,4.3
2023-02-19T00:55:38.246Z,4.6
2023-02-19T00:56:53.550Z,4.5
2023-02-19T00:58:09.849Z,4.5
2023-02-19T00:59:26.137Z,4.6
2023-02-19T01:00:42.446Z,5.1
2023-02-19T01:01:58.736Z,5
2023-02-19T01:03:15.030Z,4.6
2023-02-19T01:04:31.322Z,5.1
2023-02-19T01:05:47.608Z,4.9
2023-02-19T01:07:03.900Z,5.3
2023-02-19T01:08:20.207Z,5.4
2023-02-19T01:09:36.489Z,5.6
2023-02-19T01:10:52.794Z,5.5
2023-02-19T01:12:09.078Z,5.4
2023-02-19T01:13:24.405Z,5.5
2023-02-19T01:14:40.690Z,5.7
2023-02-19T01:15:56.996Z,5.8
2023-02-19T01:17:13.281Z,5.9
2023-02-19T01:18:29.572Z,6
2023-02-19T01:19:45.870Z,6
2023-02-19T01:21:02.166Z,6.4
2023-02-19T01:22:18.458Z,6.2
2023-02-19T01:23:34.746Z,6.3
2023-02-19T01:24:51.043Z,6.1
2023-02-19T01:26:07.337Z,6.6
2023-02-19T01:27:23.620Z,6.1
2023-02-19T01:28:39.922Z,6.6
2023-02-19T01:29:55.239Z,6.1
2023-02-19T01:31:11.523Z,6.7
2023-02-19T01:32:27.832Z,6.5
2023-02-19T01:33:44.117Z,6.8
2023-02-19T01:35:00.413Z,6.9
2023-02-19T01:36:16.701Z,6.8
2023-02-19T01:37:32.999Z,6.7
2023-02-19T01:38:49.299Z,7
2023-02-19T01:40:05.586Z,7.1
2023-02-19T01:41:21.879Z,6.5
2023-02-19T01:42:38.175Z,6.7
2023-02-19T01:43:54.478Z,7
2023-02-19T01:45:10.765Z,6.4
2023-02-19T01:46:26.070Z,6.2
2023-02-19T01:48:58.664Z,5.4
2023-02-19T01:50:14.964Z,5.9
2023-02-19T01:51:31.244Z,5.2
2023-02-19T01:52:47.535Z,5.2
2023-02-19T01:54:03.846Z,5.1
2023-02-19T01:55:20.134Z,5.9
2023-02-19T01:56:36.417Z,5.5
2023-02-19T01:57:52.723Z,5.7
2023-02-19T01:59:09.021Z,6.1
2023-02-19T02:00:25.301Z,6.4
2023-02-19T02:01:41.595Z,7.1
2023-02-19T02:02:56.910Z,7.4
2023-02-19T02:04:13.198Z,7.6
2023-02-19T02:05:29.511Z,7.6
2023-02-19T02:06:45.798Z,7.3
2023-02-19T02:08:02.079Z,7.5
2023-02-19T02:09:18.384Z,7.3
2023-02-19T02:10:34.679Z,7.4
2023-02-19T02:11:50.977Z,7.4
2023-02-19T02:14:23.549Z,7.3
2023-02-19T02:15:39.843Z,7
2023-02-19T02:16:56.147Z,6.9
2023-02-19T02:18:12.434Z,6.3
2023-02-19T02:19:28.739Z,6.8
2023-02-19T02:22:00.331Z,6.3
2023-02-19T02:23:16.631Z,6.2
2023-02-19T02:24:32.919Z,6
2023-02-19T02:25:49.221Z,6.3
2023-02-19T02:27:05.515Z,6.3
2023-02-19T02:28:21.815Z,6
2023-02-19T02:29:38.094Z,6
2023-02-19T02:30:54.397Z,5.5
2023-02-19T02:32:10.685Z,5.8
2023-02-19T02:33:26.978Z,5.6
2023-02-19T02:34:43.287Z,5.6
2023-02-19T02:35:59.577Z,6
2023-02-19T02:37:14.887Z,6.2
2023-02-19T02:38:31.170Z,5.5
2023-02-19T02:39:47.475Z,5.4
2023-02-19T02:41:03.774Z,5.3
2023-02-19T02:42:20.056Z,4.9
2023-02-19T02:43:36.345Z,5.2
2023-02-19T02:44:52.645Z,5.5
2023-02-19T02:46:08.944Z,5.6
2023-02-19T02:47:25.233Z,5
2023-02-19T02:48:41.524Z,4.9
2023-02-19T02:49:57.831Z,4.6
2023-02-19T02:51:14.120Z,4.8
2023-02-19T02:52:30.410Z,4.6
2023-02-19T02:53:45.712Z,4.9
2023-02-19T02:55:02.012Z,4.3
2023-02-19T02:56:18.302Z,4.6
2023-02-19T02:57:34.609Z,4.3
2023-02-19T02:58:50.901Z,4.1
2023-02-19T03:00:07.198Z,3.7
2023-02-19T03:01:23.492Z,4.1
2023-02-19T03:02:39.774Z,3.8
2023-02-19T03:03:56.075Z,3.8
2023-02-19T03:05:12.365Z,3.7
2023-02-19T03:06:28.664Z,3.6
2023-02-19T03:07:44.968Z,3.6
2023-02-19T03:09:01.248Z,3.6
2023-02-19T03:10:16.560Z,3.2
2023-02-19T03:11:32.862Z,3.3
2023-02-19T03:12:49.161Z,3.4
2023-02-19T03:15:21.733Z,3.2
2023-02-19T03:16:38.036Z,3.1
2023-02-19T03:17:54.328Z,3
2023-02-19T03:19:10.619Z,3
2023-02-19T03:20:26.924Z,2.7
2023-02-19T03:21:43.208Z,3
2023-02-19T03:22:59.513Z,2.8
2023-02-19T03:24:15.790Z,2.9
2023-02-19T03:25:32.085Z,2.8
2023-02-19T03:26:48.382Z,2.4
2023-02-19T03:28:04.679Z,2.4
2023-02-19T03:29:19.987Z,2.4
2023-02-19T03:30:36.291Z,2.4
2023-02-19T03:31:52.587Z,2.4
2023-02-19T03:33:08.873Z,2.3
2023-02-19T03:34:25.176Z,2.4
2023-02-19T03:35:41.462Z,2.2
2023-02-19T03:36:57.757Z,2.1
2023-02-19T03:38:14.043Z,2.2
2023-02-19T03:39:30.345Z,2.1
2023-02-19T03:40:46.630Z,2.3
2023-02-19T03:42:02.934Z,2.2
2023-02-19T03:43:19.224Z,2
2023-02-19T03:44:35.527Z,2
2023-02-19T03:45:50.826Z,2
2023-02-19T03:47:07.126Z,1.7
2023-02-19T03:48:23.425Z,1.8
2023-02-19T03:49:39.716Z,2
2023-02-19T03:50:56.001Z,1.9
2023-02-19T03:52:12.302Z,1.8
2023-02-19T03:53:28.591Z,2
2023-02-19T03:54:44.893Z,1.9
2023-02-19T03:56:01.180Z,2
2023-02-19T03:57:17.479Z,1.7
2023-02-19T03:58:33.764Z,1.8
2023-02-19T03:59:50.054Z,1.9
2023-02-19T04:01:06.353Z,1.8
2023-02-19T04:02:22.648Z,1.7
2023-02-19T04:03:37.971Z,1.8
2023-02-19T04:04:54.259Z,1.6
2023-02-19T04:06:10.553Z,1.6
2023-02-19T04:07:26.849Z,1.5
2023-02-19T04:08:43.132Z,1.5
2023-02-19T04:09:59.421Z,1.5
2023-02-19T04:11:15.723Z,1.4
2023-02-19T04:12:32.023Z,1.4
2023-02-19T04:13:48.303Z,1.3
2023-02-19T04:15:04.607Z,1.3
2023-02-19T04:16:20.897Z,1.4
2023-02-19T04:17:37.203Z,1.6
2023-02-19T04:18:53.501Z,1.6
2023-02-19T04:20:08.793Z,1.6
2023-02-19T04:21:25.105Z,1.7
2023-02-19T04:22:41.380Z,1.7
2023-02-19T04:23:57.684Z,1.7
2023-02-19T04:25:13.980Z,1.7
2023-02-19T04:26:30.282Z,1.6
2023-02-19T04:27:46.562Z,1.8
2023-02-19T04:30:19.145Z,1.7
2023-02-19T04:31:35.446Z,1.9
2023-02-19T04:32:51.759Z,1.8
2023-02-19T04:34:08.042Z,1.9
2023-02-19T04:35:24.323Z,2.6
2023-02-19T04:36:39.000Z,2.9
2023-02-19T04:37:55.924Z,3.1
2023-02-19T04:39:11.248Z,2.8
2023-02-19T04:41:43.840Z,2.6
2023-02-19T04:44:16.434Z,2.2
2023-02-19T04:45:32.714Z,2.3
2023-02-19T04:46:48.039Z,2.3
2023-02-19T04:48:03.339Z,2.1
2023-02-19T04:49:19.641Z,2
2023-02-19T04:50:35.922Z,1.9
2023-02-19T04:51:52.223Z,2
2023-02-19T04:53:08.529Z,2.3
2023-02-19T04:54:24.813Z,2
2023-02-19T04:55:41.114Z,2
2023-02-19T04:56:57.395Z,2
2023-02-19T04:59:30.000Z,1.6
2023-02-19T05:00:46.297Z,1.4
2023-02-19T05:02:02.590Z,1.5
2023-02-19T05:03:18.868Z,1.8
2023-02-19T05:04:34.189Z,1.4
2023-02-19T05:05:50.489Z,1.3
2023-02-19T05:08:23.070Z,1.1
2023-02-19T05:09:38.384Z,1.1
2023-02-19T05:10:53.689Z,1.1
2023-02-19T05:12:09.977Z,1
2023-02-19T05:13:26.282Z,1
2023-02-19T05:14:42.567Z,0.9
2023-02-19T05:15:58.866Z,1
2023-02-19T05:17:15.168Z,1
2023-02-19T05:18:31.466Z,1
2023-02-19T05:21:04.049Z,1.1
2023-02-19T05:22:20.353Z,0.9
2023-02-19T05:23:36.639Z,1
2023-02-19T05:24:52.930Z,1.1
2023-02-19T05:26:09.232Z,1.1
2023-02-19T05:27:25.518Z,1.1
2023-02-19T05:28:41.814Z,1.1
2023-02-19T05:29:57.126Z,0.9
2023-02-19T05:31:13.413Z,1.1
2023-02-19T05:33:46.009Z,1
2023-02-19T05:35:02.308Z,0.9
2023-02-19T05:36:18.593Z,0.8
2023-02-19T05:37:34.897Z,0.8
2023-02-19T05:38:51.180Z,0.9
2023-02-19T05:40:07.477Z,0.8
2023-02-19T05:41:23.771Z,0.9
2023-02-19T05:42:40.062Z,0.9
2023-02-19T05:43:56.356Z,1
2023-02-19T05:45:12.658Z,1.1
2023-02-19T05:46:28.943Z,1.3
2023-02-19T05:47:45.239Z,1.1
2023-02-19T05:49:00.561Z,1.3
2023-02-19T05:50:15.805Z,1.3
2023-02-19T05:51:32.063Z,1.3
2023-02-19T05:52:48.315Z,1.4
2023-02-19T05:54:04.539Z,1.5
2023-02-19T05:55:20.793Z,1.6
2023-02-19T05:56:37.051Z,1.8
2023-02-19T05:59:09.533Z,1.6
2023-02-19T06:00:25.772Z,1.6
2023-02-19T06:01:42.022Z,1.6
2023-02-19T06:02:58.264Z,1.8
2023-02-19T06:04:14.487Z,2.7
2023-02-19T06:05:30.731Z,2.8
2023-02-19T06:08:02.241Z,4.5
2023-02-19T06:09:17.485Z,4.3
2023-02-19T06:10:32.742Z,4.8
2023-02-19T06:11:48.997Z,4.9
2023-02-19T06:13:05.226Z,5.1
2023-02-19T06:14:21.473Z,5.6
2023-02-19T06:15:37.715Z,5.5
2023-02-19T06:18:10.186Z,6.1
2023-02-19T06:19:26.432Z,6
2023-02-19T06:20:42.672Z,6.9
2023-02-19T06:21:58.911Z,7.1
2023-02-19T06:23:15.162Z,7.3
2023-02-19T06:24:31.387Z,6.7
2023-02-19T06:25:47.643Z,7.1
2023-02-19T06:27:02.901Z,7.1
2023-02-19T06:28:19.123Z,7.3
2023-02-19T06:29:35.382Z,7.2
2023-02-19T06:30:51.620Z,8.8
2023-02-19T06:32:07.845Z,7.8
2023-02-19T06:33:24.089Z,7
2023-02-19T06:34:40.330Z,6.8
2023-02-19T06:35:56.579Z,7.4
2023-02-19T06:37:12.812Z,6.3
2023-02-19T06:38:28.077Z,5.9
2023-02-19T06:39:43.341Z,6.2
2023-02-19T06:40:59.580Z,5.7
2023-02-19T06:42:15.821Z,5.6
2023-02-19T06:43:32.056Z,5.7
2023-02-19T06:44:48.299Z,5.7
2023-02-19T06:46:04.534Z,5.3
2023-02-19T06:47:20.772Z,5.4
2023-02-19T06:48:37.017Z,5.8
2023-02-19T06:51:09.507Z,5.5
2023-02-19T06:53:41.974Z,3.6
2023-02-19T06:54:57.245Z,4
2023-02-19T06:56:13.487Z,3
2023-02-19T06:57:28.743Z,3.1
2023-02-19T06:58:44.986Z,2.5
2023-02-19T07:01:17.467Z,2.2
2023-02-19T07:02:33.705Z,2.3
2023-02-19T07:03:49.941Z,2.4
2023-02-19T07:05:06.189Z,2.5
2023-02-19T07:06:22.424Z,3.1
2023-02-19T07:07:38.657Z,2.8
2023-02-19T07:08:54.901Z,2.9
2023-02-19T07:10:11.140Z,2.7
2023-02-19T07:11:27.390Z,2.8
2023-02-19T07:12:43.620Z,3
2023-02-19T07:13:58.873Z,2.7
2023-02-19T07:15:15.124Z,2.7
2023-02-19T07:16:31.370Z,2.7
2023-02-19T07:17:47.598Z,2.8
2023-02-19T07:19:03.842Z,2.8
2023-02-19T07:20:20.077Z,3.1
2023-02-19T07:21:36.332Z,2.9
2023-02-19T07:22:52.567Z,3.2
2023-02-19T07:24:08.812Z,3.1
2023-02-19T07:25:24.058Z,3
2023-02-19T07:26:40.309Z,3.2
2023-02-19T07:27:55.560Z,3.3
2023-02-19T07:29:11.800Z,3.2
2023-02-19T07:30:28.055Z,3.3
2023-02-19T07:31:44.294Z,3.2
2023-02-19T07:33:00.531Z,3
2023-02-19T07:34:16.778Z,2.9
2023-02-19T07:35:33.016Z,2.9
2023-02-19T07:36:49.253Z,3
2023-02-19T07:39:21.737Z,3
2023-02-19T07:40:37.971Z,3.1
2023-02-19T07:41:54.219Z,3.3
2023-02-19T07:43:10.450Z,2.9
2023-02-19T07:44:26.684Z,3.4
2023-02-19T07:46:58.200Z,3.4
2023-02-19T07:48:13.452Z,3.4
2023-02-19T07:49:29.692Z,3.6
2023-02-19T07:50:44.950Z,3.9
2023-02-19T07:52:01.183Z,3.6
2023-02-19T07:53:17.421Z,3.7
2023-02-19T07:54:33.680Z,3.4
2023-02-19T07:55:49.914Z,4.1
2023-02-19T07:57:06.160Z,3.6
2023-02-19T07:58:22.388Z,4.4
2023-02-19T07:59:38.626Z,3.5
2023-02-19T08:02:11.112Z,3.6
2023-02-19T08:03:27.361Z,3.8
2023-02-19T08:04:43.590Z,3.6
2023-02-19T08:05:59.834Z,3.8
2023-02-19T08:07:15.090Z,3.7
2023-02-19T08:09:47.587Z,3.9
2023-02-19T08:11:03.824Z,3.9
2023-02-19T08:12:20.069Z,4.1
2023-02-19T08:14:52.542Z,4.2
2023-02-19T08:17:25.027Z,4.2
2023-02-19T08:18:41.255Z,4.2
2023-02-19T08:19:57.504Z,4.1
2023-02-19T08:21:13.750Z,4.2
2023-02-19T08:22:29.980Z,4.1
2023-02-19T08:25:01.487Z,4.2
2023-02-19T08:26:17.724Z,4.3
2023-02-19T08:27:33.973Z,4
2023-02-19T08:28:50.209Z,4
2023-02-19T08:30:06.453Z,3.7
2023-02-19T08:32:38.929Z,3.8
2023-02-19T08:33:55.164Z,4
2023-02-19T08:35:11.398Z,3.7
2023-02-19T08:36:27.658Z,3.7
2023-02-19T08:37:43.896Z,3.7
2023-02-19T08:39:00.121Z,3.9
2023-02-19T08:40:15.382Z,3.6
2023-02-19T08:41:31.630Z,4.2
2023-02-19T08:42:47.860Z,4
2023-02-19T08:44:04.109Z,3.8
2023-02-19T08:45:20.340Z,3.9
2023-02-19T08:47:52.826Z,3.6
2023-02-19T08:49:09.080Z,3.3
2023-02-19T08:50:25.322Z,3.2
2023-02-19T08:51:41.547Z,3.4
2023-02-19T08:52:57.801Z,2.9
2023-02-19T08:54:13.047Z,2.8
2023-02-19T08:55:29.296Z,2.8
2023-02-19T08:56:45.543Z,2.6
2023-02-19T08:58:01.780Z,2.5
2023-02-19T08:59:17.041Z,2.4
2023-02-19T09:00:33.282Z,2.3
2023-02-19T09:03:05.755Z,2
2023-02-19T09:04:21.017Z,2.2
2023-02-19T09:05:37.267Z,1.8
2023-02-19T09:06:53.503Z,2
2023-02-19T09:08:09.747Z,2
2023-02-19T09:10:42.221Z,1.8
2023-02-19T09:11:58.464Z,1.9
2023-02-19T09:13:14.704Z,1.8
2023-02-19T09:14:30.954Z,1.6
2023-02-19T09:15:46.218Z,1.5
2023-02-19T09:18:17.717Z,1.4
2023-02-19T09:20:50.190Z,1.4
2023-02-19T09:22:06.419Z,1.3
2023-02-19T09:23:22.658Z,1.3
2023-02-19T09:24:38.908Z,1.3
2023-02-19T09:25:55.152Z,1.6
2023-02-19T09:27:11.382Z,1.6
2023-02-19T09:28:27.631Z,1.6
2023-02-19T09:29:43.862Z,1.6
2023-02-19T09:31:00.119Z,1.8
2023-02-19T09:32:16.342Z,1.9
2023-02-19T09:33:32.588Z,1.8
2023-02-19T09:34:48.843Z,2.1
2023-02-19T09:37:20.324Z,1.6
2023-02-19T09:38:36.579Z,1.5
2023-02-19T09:39:52.815Z,1.3
2023-02-19T09:41:09.043Z,1.5
2023-02-19T09:42:25.301Z,1.4
2023-02-19T09:43:41.537Z,1.4
2023-02-19T09:44:57.777Z,1.7
2023-02-19T09:46:14.024Z,1.5
2023-02-19T09:48:46.630Z,1.5
2023-02-19T09:50:02.874Z,1.6
2023-02-19T09:51:18.146Z,1.5
2023-02-19T09:52:34.368Z,1.3
2023-02-19T09:53:50.622Z,1.5
2023-02-19T09:55:06.857Z,2.2
2023-02-19T09:56:23.102Z,1.9
2023-02-19T09:57:39.343Z,1.7
2023-02-19T09:58:55.589Z,1.4
2023-02-19T10:00:11.816Z,1.4
2023-02-19T10:01:28.052Z,1.5
2023-02-19T10:04:00.553Z,1.5
2023-02-19T10:05:16.792Z,1.5
2023-02-19T10:06:33.032Z,1.5
2023-02-19T10:07:49.397Z,1.5
2023-02-19T10:09:05.621Z,1.4
2023-02-19T10:10:21.873Z,1.4
2023-02-19T10:11:38.115Z,1.3
2023-02-19T10:12:54.354Z,1.3
2023-02-19T10:14:10.586Z,1.4
2023-02-19T10:15:25.859Z,1.4
2023-02-19T10:16:42.089Z,1.5
2023-02-19T10:19:13.586Z,1.3
2023-02-19T10:20:29.841Z,1.6
2023-02-19T10:21:46.066Z,1.5
2023-02-19T10:23:02.318Z,1.4
2023-02-19T10:24:18.555Z,1.4
2023-02-19T10:25:34.793Z,1.2
2023-02-19T10:26:51.026Z,1.3
2023-02-19T10:28:07.271Z,1.3
2023-02-19T10:29:23.521Z,1.5
2023-02-19T10:30:39.763Z,1.4
2023-02-19T10:31:56.002Z,1.4
2023-02-19T10:34:28.477Z,1.3
2023-02-19T10:36:59.989Z,1.3
2023-02-19T10:38:15.237Z,1.1
2023-02-19T10:39:31.494Z,1.3
2023-02-19T10:40:46.744Z,1.3
2023-02-19T10:42:02.989Z,1.2
2023-02-19T10:43:19.223Z,1.1
2023-02-19T10:44:35.464Z,1.2
2023-02-19T10:45:51.695Z,1.4
2023-02-19T10:47:07.954Z,1.3
2023-02-19T10:48:24.185Z,1.1
2023-02-19T10:49:40.423Z,1.1
2023-02-19T10:50:56.672Z,1.3
2023-02-19T10:52:11.936Z,1.2
2023-02-19T10:53:28.180Z,1.4
2023-02-19T10:54:43.417Z,1.5
2023-02-19T10:55:59.662Z,1.3
2023-02-19T10:57:15.907Z,1.4
2023-02-19T10:58:32.155Z,1.4
2023-02-19T10:59:48.397Z,1.2
2023-02-19T11:01:04.630Z,1.3
2023-02-19T11:02:20.864Z,1.4
2023-02-19T11:04:53.324Z,1.4
2023-02-19T11:06:09.558Z,1.6
2023-02-19T11:07:25.806Z,1.7
2023-02-19T11:08:42.047Z,1.8
2023-02-19T11:09:58.295Z,2.2
2023-02-19T11:11:14.528Z,2.7
2023-02-19T11:12:29.791Z,3.2
2023-02-19T11:13:46.019Z,3.8
2023-02-19T11:15:02.275Z,2
2023-02-19T11:16:18.503Z,2.5
2023-02-19T11:17:34.741Z,2.9
2023-02-19T11:18:50.991Z,2.8
2023-02-19T11:20:07.236Z,4.6
2023-02-19T11:21:23.609Z,4.1
2023-02-19T11:22:39.857Z,4.3
2023-02-19T11:23:55.112Z,4.1
2023-02-19T11:26:27.584Z,3.1
2023-02-19T11:27:43.820Z,3.3
2023-02-19T11:29:00.069Z,2.6
2023-02-19T11:30:16.318Z,3.1
2023-02-19T11:31:32.548Z,3.4
2023-02-19T11:32:48.791Z,3.3
2023-02-19T11:34:05.034Z,3.1
2023-02-19T11:35:21.271Z,2.6
2023-02-19T11:36:37.504Z,2.4
2023-02-19T11:37:53.745Z,2.4
2023-02-19T11:39:09.999Z,2.4
2023-02-19T11:40:26.363Z,2.9
2023-02-19T11:42:58.846Z,2.5
2023-02-19T11:44:14.111Z,2.4
2023-02-19T11:45:29.357Z,2.7
2023-02-19T11:46:45.606Z,2.4
2023-02-19T11:48:01.835Z,2.3
2023-02-19T11:49:18.087Z,2.3
2023-02-19T11:50:34.317Z,2.2
2023-02-19T11:51:50.564Z,1.9
2023-02-19T11:53:06.808Z,1.8
2023-02-19T11:54:23.049Z,2
2023-02-19T11:55:39.277Z,1.8
2023-02-19T11:58:11.760Z,2
2023-02-19T11:59:28.011Z,2
2023-02-19T12:02:00.484Z,2.2
2023-02-19T12:03:15.737Z,2.2
2023-02-19T12:04:31.005Z,2.4
2023-02-19T12:05:47.250Z,2.2
2023-02-19T12:07:03.489Z,2.5
2023-02-19T12:08:19.723Z,2.5
2023-02-19T12:09:35.965Z,2.5
2023-02-19T12:10:52.204Z,2.6
2023-02-19T12:12:08.453Z,2.4
2023-02-19T12:13:24.684Z,2.6
2023-02-19T12:14:40.917Z,3
2023-02-19T12:15:57.176Z,3.3
2023-02-19T12:17:12.419Z,3.3
2023-02-19T12:18:28.662Z,3.3
2023-02-19T12:19:45.036Z,3.2
2023-02-19T12:21:01.263Z,3.2
2023-02-19T12:22:17.521Z,3.3
2023-02-19T12:23:33.752Z,3.4
2023-02-19T12:24:49.993Z,3.8
2023-02-19T12:26:06.242Z,3.5
2023-02-19T12:27:22.479Z,3.4
2023-02-19T12:28:38.708Z,4.6
2023-02-19T12:29:54.947Z,3.6
2023-02-19T12:31:11.327Z,3.7
2023-02-19T12:32:26.601Z,3.8
2023-02-19T12:33:42.827Z,3.6
2023-02-19T12:34:59.074Z,3.8
2023-02-19T12:36:15.306Z,3.7
2023-02-19T12:37:31.557Z,2.9
2023-02-19T12:38:47.788Z,3.1
2023-02-19T12:40:04.038Z,3
2023-02-19T12:41:20.270Z,3.2
2023-02-19T12:42:36.515Z,3
2023-02-19T12:43:52.769Z,3.1
2023-02-19T12:45:08.989Z,3
2023-02-19T12:46:25.237Z,2.9
2023-02-19T12:47:41.473Z,2.9
2023-02-19T12:48:57.709Z,3.1
2023-02-19T12:50:12.967Z,3.3
2023-02-19T12:51:29.223Z,3.1
2023-02-19T12:52:45.448Z,2.9
2023-02-19T12:54:01.694Z,3
2023-02-19T12:55:17.945Z,2.6
2023-02-19T12:56:34.188Z,2.2
2023-02-19T12:57:50.423Z,2
2023-02-19T12:59:06.650Z,2
2023-02-19T13:00:22.896Z,2.2
2023-02-19T13:01:39.142Z,2.2
2023-02-19T13:02:55.373Z,2.3
2023-02-19T13:04:11.614Z,2.3
2023-02-19T13:05:27.849Z,2.4
2023-02-19T13:06:44.088Z,2.5
2023-02-19T13:09:15.586Z,2.5
2023-02-19T13:10:30.852Z,2.6
2023-02-19T13:11:47.086Z,2.4
2023-02-19T13:13:03.338Z,2.5
2023-02-19T13:14:19.576Z,2.3
2023-02-19T13:15:35.814Z,2.1
2023-02-19T13:16:52.064Z,2.2
2023-02-19T13:18:08.299Z,2.3
2023-02-19T13:19:24.527Z,2.2
2023-02-19T13:20:40.782Z,2.1
2023-02-19T13:21:57.020Z,2.2
2023-02-19T13:23:13.255Z,2.6
2023-02-19T13:24:29.501Z,3.4
2023-02-19T13:25:45.736Z,2.3
2023-02-19T13:27:01.991Z,2.8
2023-02-19T13:28:17.232Z,2.7
2023-02-19T13:29:33.476Z,2.8
2023-02-19T13:30:49.713Z,2.6
2023-02-19T13:32:05.951Z,2.6
2023-02-19T13:33:22.193Z,2.9
2023-02-19T13:34:38.443Z,2.6
2023-02-19T13:37:10.912Z,2.2
2023-02-19T13:38:27.169Z,2.4
2023-02-19T13:39:43.400Z,2.4
2023-02-19T13:40:59.644Z,2.7
2023-02-19T13:42:15.891Z,2.5
2023-02-19T13:43:32.129Z,2.6
2023-02-19T13:44:48.373Z,2.2
2023-02-19T13:46:03.628Z,2.5
2023-02-19T13:47:19.872Z,2.5
2023-02-19T13:48:36.104Z,2.6
2023-02-19T13:49:52.352Z,2.2
2023-02-19T13:52:24.822Z,2.8
2023-02-19T13:53:41.057Z,3
2023-02-19T13:54:57.317Z,2.8
2023-02-19T13:56:13.539Z,2.6
2023-02-19T13:57:29.790Z,3.2
2023-02-19T13:58:46.019Z,2.7
2023-02-19T14:00:02.273Z,2
2023-02-19T14:01:18.505Z,2.2
2023-02-19T14:02:33.000Z,1.8
2023-02-19T14:03:50.003Z,2.6
2023-02-19T14:05:06.244Z,2.3
2023-02-19T14:06:22.489Z,2.7
2023-02-19T14:07:38.735Z,2.4
2023-02-19T14:08:54.966Z,2.1
2023-02-19T14:10:11.201Z,2.1
2023-02-19T14:11:27.441Z,1.9
2023-02-19T14:12:43.682Z,2.1
2023-02-19T14:15:16.181Z,2.3
2023-02-19T14:16:32.411Z,1.9
2023-02-19T14:17:48.651Z,1.9
2023-02-19T14:19:03.904Z,2.1
2023-02-19T14:20:20.149Z,2
2023-02-19T14:21:36.391Z,2.5
2023-02-19T14:22:52.641Z,1.8
2023-02-19T14:24:08.873Z,1.9
2023-02-19T14:25:25.114Z,1.8
2023-02-19T14:26:41.346Z,2.1
2023-02-19T14:27:57.592Z,1.9
2023-02-19T14:29:13.829Z,1.9
2023-02-19T14:30:30.078Z,1.9
2023-02-19T14:31:46.307Z,1.8
2023-02-19T14:33:02.561Z,1.8
2023-02-19T14:34:18.787Z,1.8
2023-02-19T14:35:35.043Z,2.3
2023-02-19T14:36:50.305Z,1.9
2023-02-19T14:38:06.538Z,1.7
2023-02-19T14:39:22.778Z,2.2
2023-02-19T14:40:39.015Z,2
2023-02-19T14:41:55.259Z,1.9
2023-02-19T14:43:11.485Z,1.7
2023-02-19T14:44:27.741Z,1.5
2023-02-19T14:45:43.968Z,2.1
2023-02-19T14:47:00.220Z,1.8
2023-02-19T14:48:16.458Z,2
2023-02-19T14:49:32.701Z,1.8
2023-02-19T14:50:48.933Z,1.8
2023-02-19T14:53:21.414Z,2
2023-02-19T14:54:36.000Z,1.8
2023-02-19T14:55:52.916Z,2
2023-02-19T14:57:09.144Z,1.9
2023-02-19T14:58:25.392Z,1.9
2023-02-19T14:59:41.643Z,2
2023-02-19T15:00:57.875Z,1.8
2023-02-19T15:02:14.107Z,1.8
2023-02-19T15:03:30.353Z,1.8
2023-02-19T15:04:46.595Z,2
2023-02-19T15:06:02.832Z,2.3
2023-02-19T15:08:35.322Z,2.2
2023-02-19T15:09:51.568Z,2.3
2023-02-19T15:11:06.824Z,2.4
2023-02-19T15:12:23.053Z,2
2023-02-19T15:13:39.291Z,1.9
2023-02-19T15:14:55.535Z,1.8
2023-02-19T15:16:11.765Z,2
2023-02-19T15:17:28.017Z,1.8
2023-02-19T15:18:44.265Z,2.1
2023-02-19T15:20:00.499Z,1.7
2023-02-19T15:21:16.730Z,1.7
2023-02-19T15:23:49.208Z,1.7
2023-02-19T15:25:05.455Z,1.7
2023-02-19T15:26:21.708Z,1.6
2023-02-19T15:27:36.956Z,1.5
2023-02-19T15:28:53.192Z,1.5
2023-02-19T15:30:09.437Z,1.8
2023-02-19T15:31:25.673Z,1.6
2023-02-19T15:32:41.923Z,1.6
2023-02-19T15:33:58.149Z,1.4
2023-02-19T15:35:14.403Z,1.6
2023-02-19T15:36:30.636Z,1.4
2023-02-19T15:37:46.883Z,1.8
2023-02-19T15:39:03.124Z,1.8
2023-02-19T15:40:19.357Z,1.7
2023-02-19T15:41:35.606Z,2.1
2023-02-19T15:42:51.839Z,3.4
2023-02-19T15:44:07.102Z,2.9
2023-02-19T15:45:23.330Z,3.1
2023-02-19T15:46:39.570Z,3.5
2023-02-19T15:47:55.819Z,2.2
2023-02-19T15:49:12.058Z,2.1
2023-02-19T15:50:28.294Z,1.8
2023-02-19T15:51:44.545Z,1.9
2023-02-19T15:53:00.772Z,1.8
2023-02-19T15:54:17.016Z,1.6
2023-02-19T15:55:33.255Z,1.8
2023-02-19T15:56:49.508Z,2.1
2023-02-19T15:58:05.739Z,2.2
2023-02-19T15:59:21.971Z,2
2023-02-19T16:00:37.237Z,1.9
2023-02-19T16:01:53.484Z,1.9
2023-02-19T16:03:09.713Z,1.7
2023-02-19T16:04:25.950Z,1.6
2023-02-19T16:05:42.209Z,1.6
2023-02-19T16:06:58.445Z,1.8
2023-02-19T16:08:14.688Z,2
2023-02-19T16:09:30.932Z,1.9
2023-02-19T16:12:03.404Z,1.8
2023-02-19T16:13:19.637Z,2.1
2023-02-19T16:14:35.893Z,2.4
2023-02-19T16:17:08.372Z,2.9
2023-02-19T16:18:23.000Z,2.7
2023-02-19T16:19:39.857Z,3.7
2023-02-19T16:20:56.109Z,2.9
2023-02-19T16:22:12.338Z,2.3
2023-02-19T16:23:28.577Z,2.7
2023-02-19T16:24:44.820Z,3
2023-02-19T16:26:01.062Z,11.5
2023-02-19T16:27:17.301Z,14.2
2023-02-19T16:28:33.548Z,25
2023-02-19T16:29:49.790Z,15.4
2023-02-19T16:31:06.025Z,12.8
2023-02-19T16:32:22.270Z,8
2023-02-19T16:33:38.505Z,6.2
2023-02-19T16:34:53.763Z,4
2023-02-19T16:36:10.016Z,3
2023-02-19T16:37:26.243Z,13.6
2023-02-19T16:38:42.492Z,8
2023-02-19T16:39:58.729Z,8.7
2023-02-19T16:41:14.971Z,7.8
2023-02-19T16:42:31.213Z,11.8
2023-02-19T16:43:47.451Z,9.3
2023-02-19T16:46:19.926Z,6.5
2023-02-19T16:47:36.176Z,4.1
2023-02-19T16:48:52.413Z,3.3
2023-02-19T16:50:08.658Z,2.9
2023-02-19T16:51:23.901Z,3.2
2023-02-19T16:52:40.162Z,3.2
2023-02-19T16:53:56.387Z,2.9
2023-02-19T16:55:12.640Z,3.5
2023-02-19T16:56:28.883Z,3.3
2023-02-19T16:57:45.110Z,3.6
2023-02-19T16:59:01.351Z,3.4
2023-02-19T17:00:17.587Z,3.4
2023-02-19T17:02:50.071Z,6
2023-02-19T17:04:06.318Z,6
2023-02-19T17:05:22.613Z,6.1
2023-02-19T17:06:38.904Z,6.2
2023-02-19T17:07:54.216Z,4.9
2023-02-19T17:10:26.805Z,3.9
2023-02-19T17:11:43.247Z,4
2023-02-19T17:12:58.557Z,3.6
2023-02-19T17:14:14.858Z,3.5
2023-02-19T17:15:31.144Z,3.7
2023-02-19T17:18:03.733Z,3.5
2023-02-19T17:19:20.026Z,3.9
2023-02-19T17:20:36.326Z,3.9
2023-02-19T17:21:52.626Z,3.2
2023-02-19T17:23:08.913Z,3.8
2023-02-19T17:25:41.501Z,3.2
2023-02-19T17:26:56.817Z,3.5
2023-02-19T17:28:13.244Z,3.3
2023-02-19T17:29:28.577Z,3.4
2023-02-19T17:30:44.866Z,3.3
2023-02-19T17:32:01.155Z,3.7
2023-02-19T17:33:17.453Z,3.8
2023-02-19T17:34:33.753Z,3.8
2023-02-19T17:35:50.036Z,4.3
2023-02-19T17:37:06.324Z,3.9
2023-02-19T17:38:22.625Z,3.9
2023-02-19T17:39:38.925Z,3.5
2023-02-19T17:40:55.223Z,3.4
2023-02-19T17:42:10.529Z,3.7
2023-02-19T17:43:25.845Z,4
2023-02-19T17:44:42.138Z,4.1
2023-02-19T17:45:58.429Z,4.8
2023-02-19T17:47:14.737Z,6.6
2023-02-19T17:48:31.030Z,5.8
2023-02-19T17:49:47.318Z,5.5
2023-02-19T17:51:03.618Z,5.2
2023-02-19T17:52:19.911Z,4.7
2023-02-19T17:53:36.193Z,4.5
2023-02-19T17:54:52.505Z,4.8
2023-02-19T17:56:07.814Z,5.4
2023-02-19T17:57:23.127Z,5.3
2023-02-19T17:58:39.418Z,5
2023-02-19T17:59:55.711Z,4.7
2023-02-19T18:01:12.011Z,3.7
2023-02-19T18:02:28.301Z,4.2
2023-02-19T18:03:44.595Z,4.7
2023-02-19T18:05:00.898Z,4.8
2023-02-19T18:06:17.195Z,5.3
2023-02-19T18:07:33.488Z,5.5
2023-02-19T18:08:49.786Z,5.3
2023-02-19T18:10:06.063Z,4.2
2023-02-19T18:11:22.365Z,4.2
2023-02-19T18:12:38.658Z,4.1
2023-02-19T18:13:53.970Z,3.9
2023-02-19T18:15:10.259Z,6.1
2023-02-19T18:16:26.571Z,8.3
2023-02-19T18:17:42.857Z,8.6
2023-02-19T18:18:59.148Z,7
2023-02-19T18:20:15.452Z,6.1
2023-02-19T18:21:31.739Z,6.4
2023-02-19T18:22:48.037Z,8.1
2023-02-19T18:24:04.325Z,8.8
2023-02-19T18:26:36.917Z,7.9
2023-02-19T18:27:53.218Z,7.7
2023-02-19T18:29:09.511Z,8.7
2023-02-19T18:30:25.919Z,8.8
2023-02-19T18:31:42.217Z,10
2023-02-19T18:32:58.513Z,10.1
2023-02-19T18:34:14.815Z,9.4
2023-02-19T18:35:31.095Z,9.1
2023-02-19T18:36:47.391Z,9
2023-02-19T18:38:03.688Z,8.8
2023-02-19T18:39:19.984Z,8.6
2023-02-19T18:41:52.571Z,8.7
2023-02-19T18:43:08.880Z,8.2
2023-02-19T18:44:25.169Z,8.7
2023-02-19T18:45:41.455Z,9.1
2023-02-19T18:46:56.775Z,10.4
2023-02-19T18:49:29.351Z,13.1
2023-02-19T18:50:44.673Z,13.7
2023-02-19T18:51:59.984Z,12.6